Time;durP1;ratioP1;P1;durP2;ratioP2;P2;SDS_P1;SDS_P2;PMS_P1;PMS_P2;Temp;Humidity;BMP_temperature;BMP_pressure;BME280_temperature;BME280_humidity;BME280_pressure;Samples;Min_cycle;Max_cycle;Signal;HPM_P1;HPM_P2
2022/08/11 00:01:09;;;;;;;1.10;1.00;;;19.80;70.00;;;;;;5113659;28;20486;-82
2022/08/11 00:03:44;;;;;;;0.53;0.53;;;19.80;69.30;;;;;;5113707;28;20446;-81
2022/08/11 00:06:13;;;;;;;1.30;0.70;;;19.80;71.20;;;;;;5113679;28;20444;-81
2022/08/11 00:08:42;;;;;;;1.40;1.30;;;19.70;72.30;;;;;;5113250;28;20478;-82
2022/08/11 00:11:11;;;;;;;0.53;0.50;;;19.70;70.30;;;;;;5113002;28;20485;-82
2022/08/11 00:13:40;;;;;;;0.70;0.70;;;19.70;69.00;;;;;;5113205;28;20516;-81
2022/08/11 00:16:14;;;;;;;1.20;0.70;;;19.70;68.80;;;;;;5113604;28;20427;-81
2022/08/11 00:18:42;;;;;;;0.60;0.60;;;19.70;72.60;;;;;;5113220;28;20917;-81
2022/08/11 00:21:10;;;;;;;1.00;0.70;;;19.70;71.60;;;;;;5113082;28;21020;-82
2022/08/11 00:23:43;;;;;;;0.50;0.50;;;19.70;69.60;;;;;;5117096;28;20443;-82
2022/08/11 00:26:10;;;;;;;0.77;0.67;;;19.70;70.00;;;;;;5117165;28;20933;-81
2022/08/11 00:28:37;;;;;;;0.57;0.53;;;19.60;71.40;;;;;;5117311;28;20470;-81
2022/08/11 00:31:06;;;;;;;0.60;0.50;;;19.60;72.60;;;;;;5117361;28;20463;-82
2022/08/11 00:33:38;;;;;;;0.70;0.70;;;19.60;70.30;;;;;;5117254;28;20439;-81
2022/08/11 00:36:06;;;;;;;0.70;0.70;;;19.60;72.30;;;;;;5117252;28;20427;-81
2022/08/11 00:38:36;;;;;;;1.13;0.87;;;19.60;71.00;;;;;;5117147;28;20442;-81
2022/08/11 00:41:25;;;;;;;1.40;0.53;;;19.60;71.80;;;;;;5116987;27;20490;-82
2022/08/11 00:44:30;;;;;;;0.70;0.70;;;19.60;71.60;;;;;;5114574;28;20465;-81
2022/08/11 00:47:10;;;;;;;0.50;0.50;;;19.50;71.70;;;;;;5106657;27;20446;-81
2022/08/11 00:49:46;;;;;;;1.20;0.90;;;19.50;72.20;;;;;;5116738;28;20442;-82
2022/08/11 00:52:29;;;;;;;0.50;0.50;;;19.50;71.70;;;;;;5116683;28;20812;-81
2022/08/11 00:55:17;;;;;;;0.53;0.53;;;19.40;71.70;;;;;;5116942;28;20427;-81
2022/08/11 00:58:33;;;;;;;0.90;0.73;;;19.40;73.00;;;;;;5116913;28;20427;-81
2022/08/11 01:01:25;;;;;;;0.60;0.50;;;19.30;73.60;;;;;;5116610;28;20493;-81
2022/08/11 01:04:23;;;;;;;0.60;0.60;;;19.30;74.20;;;;;;5116786;28;20473;-82
2022/08/11 01:07:21;;;;;;;0.70;0.70;;;19.30;74.50;;;;;;5116694;28;20435;-82
2022/08/11 01:10:02;;;;;;;1.07;0.70;;;19.30;72.70;;;;;;5116301;27;20490;-81
2022/08/11 01:12:43;;;;;;;1.03;0.80;;;19.20;73.40;;;;;;5116702;28;20415;-81
2022/08/11 01:15:39;;;;;;;0.50;0.50;;;19.20;74.10;;;;;;5116257;28;20930;-82
2022/08/11 01:18:53;;;;;;;1.03;0.90;;;19.20;71.60;;;;;;5116327;28;20419;-81
2022/08/11 01:22:21;;;;;;;0.73;0.73;;;19.20;74.30;;;;;;5116278;27;20573;-81
2022/08/11 01:25:12;;;;;;;0.90;0.90;;;19.20;74.20;;;;;;5118714;28;20447;-81
2022/08/11 01:28:24;;;;;;;0.90;0.77;;;19.10;72.70;;;;;;5116243;28;20496;-82
2022/08/11 01:31:22;;;;;;;0.70;0.60;;;19.10;72.20;;;;;;5116118;28;20516;-81
2022/08/11 01:34:32;;;;;;;1.00;0.60;;;19.10;73.20;;;;;;5115283;28;20427;-81
2022/08/11 01:37:46;;;;;;;0.63;0.63;;;19.00;72.50;;;;;;5115990;28;20878;-81
2022/08/11 01:40:46;;;;;;;0.50;0.50;;;19.00;72.00;;;;;;5115606;28;21054;-82
2022/08/11 01:46:46;;;;;;;0.60;0.57;;;19.00;72.60;;;;;;5107562;28;20434;-82
2022/08/11 01:49:23;;;;;;;1.03;0.70;;;19.00;74.20;;;;;;5115810;28;20424;-82
2022/08/11 01:52:06;;;;;;;0.70;0.67;;;19.00;74.80;;;;;;5115356;28;20462;-82
2022/08/11 01:54:43;;;;;;;0.60;0.60;;;18.90;75.60;;;;;;5115692;28;20423;-82
2022/08/11 01:57:26;;;;;;;0.70;0.70;;;18.90;74.70;;;;;;5115635;28;20423;-81
2022/08/11 02:00:02;;;;;;;1.70;0.70;;;18.90;74.60;;;;;;5115205;28;20914;-82
2022/08/11 02:02:52;;;;;;;0.50;0.50;;;18.90;76.30;;;;;;5115188;28;20466;-82
2022/08/11 02:05:43;;;;;;;1.00;0.60;;;18.90;77.10;;;;;;5115181;28;20472;-81
2022/08/11 02:08:20;;;;;;;0.60;0.60;;;18.80;76.30;;;;;;5115447;28;20797;-81
2022/08/11 02:13:47;;;;;;;1.10;1.00;;;18.70;76.50;;;;;;5115278;28;20956;-81
2022/08/11 02:16:22;;;;;;;0.97;0.80;;;18.70;77.00;;;;;;5115287;28;20496;-82
2022/08/11 02:24:49;;;;;;;0.60;0.60;;;18.70;76.00;;;;;;5072134;28;20475;-82
2022/08/11 02:27:23;;;;;;;0.80;0.70;;;18.70;76.30;;;;;;5106301;28;20504;-82
2022/08/11 02:30:06;;;;;;;2.43;1.43;;;18.70;77.00;;;;;;5114623;28;20785;-82
2022/08/11 02:35:27;;;;;;;1.40;0.90;;;18.70;75.60;;;;;;5114670;28;20399;-81
2022/08/11 02:38:07;;;;;;;0.67;0.67;;;18.60;76.90;;;;;;5114868;28;20427;-81
2022/08/11 02:40:42;;;;;;;0.57;0.57;;;18.60;78.00;;;;;;5114760;28;20458;-81
2022/08/11 02:43:20;;;;;;;0.83;0.67;;;18.60;79.20;;;;;;5114380;28;20985;-81
2022/08/11 02:45:54;;;;;;;1.17;0.70;;;18.50;79.00;;;;;;5114689;28;20449;-81
2022/08/11 02:51:29;;;;;;;0.80;0.73;;;18.40;79.30;;;;;;5114448;28;20972;-82
2022/08/11 02:54:06;;;;;;;0.60;0.60;;;18.30;79.90;;;;;;5114279;28;20911;-81
2022/08/11 02:56:45;;;;;;;0.47;0.47;;;18.20;80.60;;;;;;5114550;28;20432;-81
2022/08/11 03:02:16;;;;;;;1.73;0.80;;;18.10;81.80;;;;;;5114406;28;20458;-81
2022/08/11 03:04:55;;;;;;;0.87;0.50;;;18.00;80.10;;;;;;5114108;28;20434;-81
2022/08/11 03:07:27;;;;;;;4.87;1.10;;;17.90;80.70;;;;;;5114330;28;20435;-81
2022/08/11 03:10:03;;;;;;;1.53;1.00;;;17.90;81.00;;;;;;5114516;28;20483;-81
2022/08/11 03:18:34;;;;;;;0.60;0.60;;;17.80;80.80;;;;;;5113490;28;20949;-81
2022/08/11 03:21:09;;;;;;;0.60;0.60;;;17.70;81.10;;;;;;5114066;28;20474;-81
2022/08/11 03:23:44;;;;;;;0.73;0.73;;;17.70;81.00;;;;;;5113681;28;20467;-81
2022/08/11 03:26:25;;;;;;;1.07;0.80;;;17.70;81.30;;;;;;5114095;28;20454;-81
2022/08/11 03:29:04;;;;;;;3.90;0.70;;;17.60;81.60;;;;;;5113732;28;20915;-81
2022/08/11 03:31:41;;;;;;;1.40;0.63;;;17.60;82.70;;;;;;5113920;28;20506;-81
2022/08/11 03:34:12;;;;;;;0.90;0.90;;;17.60;81.50;;;;;;5113980;28;20439;-81
2022/08/11 03:37:11;;;;;;;0.70;0.70;;;17.60;82.20;;;;;;5113963;28;20411;-81
2022/08/11 03:39:48;;;;;;;1.00;0.70;;;17.60;82.80;;;;;;5113615;28;20440;-82
2022/08/11 03:42:22;;;;;;;0.60;0.60;;;17.70;82.00;;;;;;5113490;28;20507;-82
2022/08/11 03:45:07;;;;;;;0.87;0.50;;;17.70;80.60;;;;;;5113930;28;20844;-82
2022/08/11 03:48:07;;;;;;;2.00;0.70;;;17.70;80.30;;;;;;5113843;28;20427;-82
2022/08/11 03:50:54;;;;;;;1.67;0.90;;;17.70;81.70;;;;;;5113742;28;20463;-82
2022/08/11 03:53:42;;;;;;;0.70;0.70;;;17.80;79.30;;;;;;5113468;28;20433;-81
2022/08/11 03:56:53;;;;;;;1.33;0.70;;;17.80;79.20;;;;;;5113766;28;20430;-81
2022/08/11 03:59:48;;;;;;;1.17;0.63;;;17.80;79.30;;;;;;5117565;28;20942;-81
2022/08/11 04:02:35;;;;;;;1.37;0.80;;;17.80;79.90;;;;;;5117451;28;20839;-82
2022/08/11 04:05:44;;;;;;;1.90;0.80;;;17.90;81.60;;;;;;5117508;28;20442;-81
2022/08/11 04:08:49;;;;;;;1.33;0.70;;;17.90;79.00;;;;;;5117448;28;20949;-82
2022/08/11 04:11:39;;;;;;;1.00;0.80;;;18.00;81.70;;;;;;5116377;28;20493;-82
2022/08/11 04:17:56;;;;;;;0.70;0.70;;;17.90;84.00;;;;;;5117740;28;20411;-82
2022/08/11 04:20:55;;;;;;;0.97;0.47;;;17.90;83.40;;;;;;5093252;27;20470;-82
2022/08/11 04:23:39;;;;;;;0.77;0.70;;;17.80;83.40;;;;;;5117235;28;20485;-81
2022/08/11 04:26:32;;;;;;;0.60;0.60;;;17.80;83.00;;;;;;5117660;28;20442;-83
2022/08/11 04:29:19;;;;;;;0.50;0.50;;;17.80;83.70;;;;;;5117629;28;20435;-83
2022/08/11 04:32:04;;;;;;;1.23;0.83;;;17.80;83.30;;;;;;5117389;28;20462;-83
2022/08/11 04:34:51;;;;;;;0.77;0.77;;;17.80;83.60;;;;;;5117246;28;20447;-82
2022/08/11 04:37:43;;;;;;;0.70;0.60;;;17.70;83.90;;;;;;5117244;28;20440;-82
2022/08/11 04:40:36;;;;;;;0.73;0.73;;;17.70;85.20;;;;;;5116928;28;20554;-82
2022/08/11 04:43:40;;;;;;;1.53;0.90;;;17.80;85.10;;;;;;5117033;28;20466;-82
2022/08/11 04:46:33;;;;;;;1.20;0.63;;;17.70;85.90;;;;;;5094860;28;20463;-82
2022/08/11 05:01:41;;;;;;;0.53;0.53;;;17.70;88.00;;;;;;5116561;28;20868;-83
2022/08/11 05:08:03;;;;;;;1.50;1.10;;;17.70;89.00;;;;;;5111096;28;20944;-83
2022/08/11 05:10:47;;;;;;;0.83;0.80;;;17.60;88.50;;;;;;5115990;28;20508;-83
2022/08/11 05:36:16;;;;;;;0.83;0.83;;;17.80;90.10;;;;;;5116162;28;20395;-89
2022/08/11 05:58:15;;;;;;;1.90;1.07;;;18.50;84.80;;;;;;5115723;28;20414;-83
2022/08/11 06:00:46;;;;;;;0.87;0.80;;;18.70;84.00;;;;;;5115616;28;20470;-84
2022/08/11 06:03:25;;;;;;;0.70;0.70;;;18.90;82.90;;;;;;5115640;28;20471;-83
2022/08/11 06:05:52;;;;;;;0.83;0.80;;;19.00;82.60;;;;;;5115559;28;20438;-83
2022/08/11 06:08:29;;;;;;;1.30;0.90;;;19.30;82.10;;;;;;5115695;28;20774;-83
2022/08/11 06:11:01;;;;;;;2.30;0.90;;;19.50;81.10;;;;;;5114802;28;20543;-83
2022/08/11 06:13:28;;;;;;;1.13;0.70;;;19.80;81.10;;;;;;5115043;28;20428;-84
2022/08/11 06:15:58;;;;;;;8.30;1.00;;;19.90;81.20;;;;;;5115240;28;20447;-83
2022/08/11 06:18:26;;;;;;;1.00;1.00;;;20.20;79.90;;;;;;5115220;28;20462;-83
2022/08/11 06:20:56;;;;;;;0.70;0.70;;;20.40;78.80;;;;;;5114901;28;20474;-82
2022/08/11 06:23:30;;;;;;;1.20;0.90;;;20.60;77.50;;;;;;5115118;28;20459;-83
2022/08/11 06:25:59;;;;;;;0.97;0.80;;;20.70;77.70;;;;;;5114929;28;20427;-83
2022/08/11 06:28:31;;;;;;;3.43;1.20;;;20.80;77.00;;;;;;5114761;28;20514;-83
2022/08/11 06:31:01;;;;;;;4.97;0.80;;;20.90;77.30;;;;;;5114977;28;20467;-83
2022/08/11 06:33:38;;;;;;;0.97;0.70;;;21.10;77.00;;;;;;5114672;28;20922;-81
2022/08/11 06:36:15;;;;;;;0.97;0.80;;;21.30;76.00;;;;;;5114679;28;20446;-83
2022/08/11 06:38:59;;;;;;;0.60;0.60;;;21.50;75.40;;;;;;5114838;28;20439;-83
2022/08/11 06:41:38;;;;;;;0.80;0.80;;;21.60;75.60;;;;;;5114435;28;20481;-83
2022/08/11 06:44:18;;;;;;;1.00;0.80;;;21.60;75.80;;;;;;5114670;28;20463;-83
2022/08/11 06:46:50;;;;;;;1.13;0.87;;;21.80;75.00;;;;;;5114413;28;20518;-83
2022/08/11 06:52:06;;;;;;;1.87;1.03;;;22.10;74.20;;;;;;5114361;28;20518;-82
2022/08/11 06:54:37;;;;;;;0.90;0.90;;;22.20;74.20;;;;;;5114306;28;20443;-82
2022/08/11 07:02:59;;;;;;;0.80;0.80;;;22.50;73.80;;;;;;5114111;28;20465;-82
2022/08/11 07:05:37;;;;;;;1.03;0.80;;;22.70;73.00;;;;;;5114023;28;20447;-83
2022/08/11 07:17:16;;;;;;;1.43;1.10;;;23.10;71.10;;;;;;5114235;28;20410;-82
2022/08/11 07:31:15;;;;;;;0.77;0.77;;;23.90;71.30;;;;;;5113561;28;20933;-83
2022/08/11 07:33:46;;;;;;;2.20;1.60;;;24.20;68.90;;;;;;5113892;28;20517;-82
2022/08/11 07:36:16;;;;;;;0.80;0.80;;;24.20;69.00;;;;;;5113795;28;20466;-82
2022/08/11 07:38:50;;;;;;;0.77;0.77;;;24.20;68.30;;;;;;5114061;28;20426;-79
2022/08/11 07:41:19;;;;;;;1.03;0.70;;;24.30;67.70;;;;;;5113611;28;20462;-80
2022/08/11 07:43:51;;;;;;;1.27;1.17;;;24.40;67.10;;;;;;5113426;28;20219;-79
2022/08/11 07:54:42;;;;;;;1.80;1.20;;;24.40;67.10;;;;;;5113595;28;20955;-80
2022/08/11 08:19:19;;;;;;;1.00;1.00;;;25.50;63.00;;;;;;5113351;28;20209;-79
2022/08/11 08:21:47;;;;;;;1.70;1.45;;;25.60;63.60;;;;;;5113481;28;20270;-79
2022/08/11 08:24:18;;;;;;;1.10;1.00;;;25.80;63.70;;;;;;5113097;28;20211;-80
2022/08/11 08:27:00;;;;;;;0.90;0.90;;;25.90;62.50;;;;;;5113216;28;20185;-79
2022/08/11 08:32:17;;;;;;;1.25;0.98;;;25.80;60.80;;;;;;5113232;28;20678;-79
2022/08/11 08:34:46;;;;;;;0.70;0.70;;;25.70;62.30;;;;;;5113423;28;20200;-79
2022/08/11 08:37:14;;;;;;;0.82;0.70;;;25.70;62.00;;;;;;5113353;28;20204;-80
2022/08/11 08:39:45;;;;;;;0.75;0.75;;;25.70;62.60;;;;;;5113049;28;20707;-79
2022/08/11 08:42:17;;;;;;;0.82;0.77;;;25.60;61.60;;;;;;5113372;28;20197;-78
2022/08/11 08:44:49;;;;;;;1.65;1.00;;;25.70;61.10;;;;;;5116729;28;20299;-79
2022/08/11 08:47:18;;;;;;;1.10;1.00;;;25.60;60.50;;;;;;5116801;28;20652;-78
2022/08/11 08:49:49;;;;;;;0.70;0.70;;;25.40;60.50;;;;;;5116939;28;20197;-78
2022/08/11 08:52:18;;;;;;;1.13;1.03;;;25.50;61.10;;;;;;5116988;28;20234;-80
2022/08/11 08:54:52;;;;;;;1.30;0.90;;;25.50;60.10;;;;;;5116626;28;20180;-79
2022/08/11 08:57:21;;;;;;;0.88;0.88;;;25.50;60.00;;;;;;5116901;28;20220;-80
2022/08/11 08:59:49;;;;;;;0.90;0.70;;;25.60;60.40;;;;;;5116781;28;20204;-79
2022/08/11 09:02:18;;;;;;;0.70;0.70;;;25.60;61.50;;;;;;5116730;28;20204;-79
2022/08/11 09:04:46;;;;;;;1.20;0.95;;;25.80;61.80;;;;;;5116758;28;20246;-79
2022/08/11 09:07:15;;;;;;;1.85;1.10;;;26.00;59.50;;;;;;5116638;28;20205;-84
2022/08/11 09:09:43;;;;;;;2.35;0.70;;;26.20;60.00;;;;;;5116102;28;20208;-80
2022/08/11 09:12:13;;;;;;;0.65;0.65;;;26.30;59.50;;;;;;5116680;28;20189;-79
2022/08/11 09:17:27;;;;;;;3.90;1.23;;;26.60;59.00;;;;;;5116249;28;20214;-80
2022/08/11 09:19:57;;;;;;;1.75;1.17;;;26.60;56.50;;;;;;5116012;28;20197;-80
2022/08/11 09:27:56;;;;;;;1.08;0.88;;;26.70;57.20;;;;;;5116082;28;20187;-79
2022/08/11 09:30:25;;;;;;;1.33;1.00;;;26.70;57.50;;;;;;5116280;28;20225;-79
2022/08/11 09:32:56;;;;;;;0.60;0.60;;;26.70;58.00;;;;;;5116158;28;20201;-79
2022/08/11 09:35:24;;;;;;;1.48;0.82;;;26.70;57.70;;;;;;5116195;28;20185;-79
2022/08/11 09:40:37;;;;;;;1.25;1.15;;;26.80;56.90;;;;;;5116038;28;20267;-79
2022/08/11 09:45:57;;;;;;;1.27;1.17;;;26.60;57.10;;;;;;5116018;28;20549;-82
2022/08/11 09:48:25;;;;;;;1.05;0.93;;;26.50;56.60;;;;;;5115632;28;20193;-79
2022/08/11 09:50:55;;;;;;;1.00;1.00;;;26.50;57.10;;;;;;5115739;28;20248;-79
2022/08/11 09:53:25;;;;;;;0.80;0.80;;;26.50;57.00;;;;;;5115769;28;20223;-79
2022/08/11 09:55:53;;;;;;;0.85;0.85;;;26.60;57.30;;;;;;5115085;28;20724;-79
2022/08/11 09:58:21;;;;;;;0.80;0.80;;;26.70;57.30;;;;;;5115686;28;20205;-79
2022/08/11 10:00:50;;;;;;;0.80;0.80;;;26.90;58.30;;;;;;5115576;28;20248;-79
2022/08/11 10:03:20;;;;;;;1.05;0.80;;;27.10;56.00;;;;;;5115512;28;20204;-79
2022/08/11 10:08:36;;;;;;;0.95;0.90;;;27.10;55.40;;;;;;5115527;28;20265;-79
2022/08/11 10:11:03;;;;;;;0.70;0.70;;;27.30;55.70;;;;;;5114954;28;20269;-79
2022/08/11 10:15:32;;;;;;;0.90;0.90;;;27.30;55.40;;;;;;5115015;28;20566;-79
2022/08/11 10:16:25;;;;;;;0.82;0.82;;;27.40;54.30;;;;;;5114862;28;20208;-79
2022/08/11 10:18:54;;;;;;;0.98;0.98;;;27.60;55.60;;;;;;5115326;28;20181;-79
2022/08/11 10:21:27;;;;;;;1.85;1.00;;;27.80;54.80;;;;;;5114916;27;20221;-82
2022/08/11 10:26:57;;;;;;;0.88;0.88;;;28.00;53.90;;;;;;5115260;28;20180;-79
2022/08/11 10:35:01;;;;;;;0.93;0.93;;;27.70;54.20;;;;;;5115100;28;20586;-80
2022/08/11 10:37:33;;;;;;;0.90;0.70;;;27.80;53.30;;;;;;5114970;28;20185;-79
2022/08/11 10:40:01;;;;;;;0.82;0.82;;;28.00;53.00;;;;;;5114504;28;20185;-79
2022/08/11 10:48:00;;;;;;;0.98;0.98;;;28.70;51.20;;;;;;5114536;28;20302;-80
2022/08/11 10:58:48;;;;;;;1.75;0.93;;;28.60;52.60;;;;;;5114554;28;20184;-79
2022/08/11 11:01:22;;;;;;;1.17;0.98;;;28.70;51.50;;;;;;5114091;28;20227;-79
2022/08/11 11:03:51;;;;;;;1.35;1.35;;;28.70;51.10;;;;;;5115059;28;20262;-79
2022/08/11 11:06:24;;;;;;;1.20;1.20;;;28.80;50.50;;;;;;5113275;28;20173;-80
2022/08/11 11:08:56;;;;;;;0.88;0.70;;;28.80;50.30;;;;;;5114038;28;20185;-79
2022/08/11 11:17:54;;;;;;;0.63;0.63;;;28.90;50.30;;;;;;5113935;28;20239;-80
2022/08/11 11:19:57;;;;;;;0.90;0.90;;;28.30;50.90;;;;;;5113709;28;20212;-79
2022/08/11 11:22:38;;;;;;;0.75;0.75;;;28.00;50.50;;;;;;5113933;28;20556;-80
2022/08/11 11:25:17;;;;;;;1.20;1.10;;;27.90;51.20;;;;;;5114251;28;20204;-80
2022/08/11 11:27:56;;;;;;;0.70;0.65;;;27.60;51.00;;;;;;5114093;28;20188;-80
2022/08/11 11:30:31;;;;;;;1.17;0.75;;;27.50;50.60;;;;;;5114033;28;20228;-79
2022/08/11 11:33:07;;;;;;;0.98;0.80;;;27.50;51.00;;;;;;5113689;28;20190;-79
2022/08/11 11:35:46;;;;;;;0.70;0.70;;;27.40;51.60;;;;;;5113686;28;20188;-80
2022/08/11 11:38:13;;;;;;;0.90;0.80;;;27.40;52.20;;;;;;5113653;28;20641;-79
2022/08/11 11:40:40;;;;;;;1.25;0.70;;;27.50;52.30;;;;;;5113894;28;20231;-80
2022/08/11 11:43:07;;;;;;;1.42;1.30;;;27.60;50.80;;;;;;5114055;28;20206;-80
2022/08/11 11:45:34;;;;;;;1.10;1.00;;;27.60;51.30;;;;;;5113786;28;20247;-80
2022/08/11 11:48:04;;;;;;;0.93;0.93;;;27.60;50.60;;;;;;5113586;28;20680;-80
2022/08/11 11:50:33;;;;;;;0.82;0.80;;;27.60;51.20;;;;;;5113806;28;20220;-80
2022/08/11 11:53:01;;;;;;;0.80;0.80;;;27.60;51.00;;;;;;5113895;28;20208;-79
2022/08/11 11:55:30;;;;;;;0.60;0.60;;;27.50;50.90;;;;;;5113850;28;20201;-80
2022/08/11 12:03:31;;;;;;;0.65;0.60;;;27.40;50.50;;;;;;5113464;28;20265;-80
2022/08/11 12:05:59;;;;;;;1.33;1.23;;;27.30;50.30;;;;;;5113479;28;20197;-81
2022/08/11 12:08:27;;;;;;;0.70;0.70;;;27.30;51.20;;;;;;5113368;28;20565;-80
2022/08/11 12:13:41;;;;;;;0.70;0.70;;;27.30;50.50;;;;;;5113316;28;20195;-79
2022/08/11 12:16:10;;;;;;;0.68;0.68;;;27.30;50.90;;;;;;5113928;28;20188;-80
2022/08/11 12:18:41;;;;;;;0.80;0.70;;;27.30;51.10;;;;;;5116023;28;20231;-80
2022/08/11 12:21:09;;;;;;;0.70;0.60;;;27.30;52.20;;;;;;5117319;28;20703;-80
2022/08/11 12:29:10;;;;;;;6.13;0.80;;;27.40;50.00;;;;;;5117400;28;20184;-79
2022/08/11 12:31:39;;;;;;;0.90;0.90;;;27.30;50.10;;;;;;5116968;28;20216;-79
2022/08/11 12:34:09;;;;;;;1.02;0.93;;;27.10;50.00;;;;;;5117308;28;20193;-81
2022/08/11 12:36:40;;;;;;;0.93;0.65;;;27.20;50.00;;;;;;5117340;28;20189;-80
2022/08/11 12:39:10;;;;;;;0.70;0.70;;;27.20;49.90;;;;;;5116980;28;20196;-79
2022/08/11 12:47:13;;;;;;;0.90;0.90;;;27.10;48.60;;;;;;5117199;28;20184;-80
2022/08/11 12:52:37;;;;;;;0.90;0.90;;;26.90;49.70;;;;;;5116986;28;20565;-80
2022/08/11 12:55:09;;;;;;;0.60;0.60;;;26.80;50.00;;;;;;5116806;28;20640;-80
2022/08/11 13:05:58;;;;;;;1.33;0.90;;;26.60;50.40;;;;;;5116698;28;20200;-79
2022/08/11 13:08:28;;;;;;;3.55;0.70;;;26.70;50.90;;;;;;5116692;28;20702;-80
2022/08/11 13:13:43;;;;;;;0.75;0.75;;;26.70;49.60;;;;;;5116434;28;20299;-82
2022/08/11 13:16:10;;;;;;;0.82;0.82;;;26.70;49.60;;;;;;5116713;28;20204;-80
2022/08/11 13:18:41;;;;;;;0.70;0.70;;;26.80;49.60;;;;;;5116577;28;20196;-79
2022/08/11 13:21:10;;;;;;;0.50;0.50;;;26.70;50.10;;;;;;5116234;28;20277;-79
2022/08/11 13:23:38;;;;;;;0.70;0.70;;;26.70;50.40;;;;;;5116697;28;20258;-79
2022/08/11 13:26:06;;;;;;;1.30;0.93;;;26.70;50.20;;;;;;5116126;28;20217;-80
2022/08/11 13:28:35;;;;;;;0.73;0.63;;;26.80;49.70;;;;;;5116063;28;20236;-79
2022/08/11 13:31:12;;;;;;;0.70;0.70;;;26.80;49.50;;;;;;5114955;28;20225;-82
2022/08/11 13:33:42;;;;;;;1.15;0.77;;;26.70;49.90;;;;;;5116084;28;20185;-80
2022/08/11 13:36:14;;;;;;;0.80;0.70;;;26.70;50.10;;;;;;5117205;28;20234;-80
2022/08/11 13:38:43;;;;;;;0.70;0.70;;;26.60;50.60;;;;;;5116125;28;20189;-79
2022/08/11 13:43:52;;;;;;;0.50;0.50;;;26.80;50.40;;;;;;5115546;28;20189;-79
2022/08/11 13:46:21;;;;;;;0.80;0.70;;;26.70;49.80;;;;;;5116184;28;20201;-81
2022/08/11 13:48:50;;;;;;;0.77;0.70;;;26.70;49.10;;;;;;5116327;28;20205;-79
2022/08/11 13:51:31;;;;;;;1.05;0.90;;;26.60;48.90;;;;;;5115811;28;20311;-80
2022/08/11 13:54:00;;;;;;;1.70;0.80;;;26.60;49.00;;;;;;5116310;28;20201;-80
2022/08/11 13:56:28;;;;;;;0.68;0.68;;;26.70;49.00;;;;;;5115582;28;20202;-79
2022/08/11 13:58:56;;;;;;;0.80;0.60;;;26.70;48.60;;;;;;5115729;27;20209;-79
2022/08/11 14:01:26;;;;;;;0.80;0.80;;;26.70;49.60;;;;;;5115705;28;20221;-79
2022/08/11 14:03:53;;;;;;;0.93;0.88;;;26.70;49.60;;;;;;5115724;28;20185;-80
2022/08/11 14:06:22;;;;;;;2.80;0.70;;;26.70;49.10;;;;;;5115483;28;20679;-79
2022/08/11 14:08:52;;;;;;;0.80;0.80;;;26.60;49.50;;;;;;5116040;27;20193;-79
2022/08/11 14:14:06;;;;;;;0.65;0.65;;;26.70;50.20;;;;;;5115528;28;20184;-80
2022/08/11 14:16:40;;;;;;;0.60;0.55;;;26.70;50.00;;;;;;5115375;28;20201;-81
2022/08/11 14:19:12;;;;;;;0.63;0.63;;;26.70;49.50;;;;;;5115374;28;20193;-80
2022/08/11 14:24:28;;;;;;;1.00;0.80;;;26.80;49.40;;;;;;5114936;28;20215;-80
2022/08/11 14:26:56;;;;;;;1.60;0.80;;;26.70;49.00;;;;;;5115144;28;20205;-79
2022/08/11 14:29:25;;;;;;;0.98;0.60;;;26.80;49.20;;;;;;5115138;28;20208;-79
2022/08/11 14:31:55;;;;;;;0.73;0.73;;;26.70;49.20;;;;;;5114714;28;20224;-80
2022/08/11 14:34:26;;;;;;;0.90;0.77;;;26.70;49.10;;;;;;5114941;28;20204;-80
2022/08/11 14:36:56;;;;;;;0.88;0.73;;;26.70;49.60;;;;;;5115035;28;20184;-80
2022/08/11 14:39:26;;;;;;;0.65;0.65;;;26.70;49.70;;;;;;5115020;28;20200;-79
2022/08/11 14:47:03;;;;;;;0.73;0.68;;;26.90;48.60;;;;;;5114637;28;20260;-80
2022/08/11 14:48:01;;;;;;;1.30;0.77;;;26.80;48.70;;;;;;5114248;28;20288;-80
2022/08/11 14:50:29;;;;;;;0.70;0.60;;;26.80;48.90;;;;;;5114700;28;20266;-80
2022/08/11 14:53:00;;;;;;;0.88;0.80;;;26.70;49.30;;;;;;5114641;28;20211;-79
2022/08/11 14:58:20;;;;;;;0.90;0.70;;;26.90;49.40;;;;;;5114588;28;20206;-80
2022/08/11 15:00:49;;;;;;;0.60;0.60;;;26.90;48.40;;;;;;5114033;28;20231;-80
2022/08/11 15:03:16;;;;;;;0.60;0.60;;;26.90;49.00;;;;;;5114089;28;20196;-80
2022/08/11 15:05:50;;;;;;;1.75;0.73;;;26.90;48.90;;;;;;5114250;28;20224;-80
2022/08/11 15:08:19;;;;;;;0.77;0.77;;;26.80;48.90;;;;;;5114355;28;20603;-80
2022/08/11 15:10:47;;;;;;;0.95;0.82;;;26.80;48.80;;;;;;5113723;28;20240;-80
2022/08/11 15:13:18;;;;;;;0.68;0.68;;;26.80;49.30;;;;;;5114257;28;20204;-79
2022/08/11 15:18:31;;;;;;;0.80;0.80;;;26.90;49.30;;;;;;5114086;28;20646;-80
2022/08/11 15:37:41;;;;;;;0.93;0.50;;;26.80;48.70;;;;;;5114168;28;20643;-80
2022/08/11 15:45:55;;;;;;;0.80;0.80;;;26.70;48.50;;;;;;5113949;28;20224;-80
2022/08/11 15:48:35;;;;;;;0.60;0.60;;;26.60;49.00;;;;;;5113851;28;20676;-79
2022/08/11 15:51:08;;;;;;;0.75;0.75;;;26.60;48.50;;;;;;5113924;28;20281;-80
2022/08/11 15:53:40;;;;;;;0.80;0.80;;;26.70;48.40;;;;;;5116523;28;20189;-80
2022/08/11 15:56:10;;;;;;;0.88;0.77;;;26.60;49.20;;;;;;5118243;28;20679;-80
2022/08/11 16:04:15;;;;;;;0.88;0.80;;;26.60;48.90;;;;;;5118244;28;20693;-80
2022/08/11 16:06:48;;;;;;;1.20;0.80;;;26.60;49.00;;;;;;5118000;28;20215;-80
2022/08/11 16:09:17;;;;;;;0.95;0.88;;;26.70;48.50;;;;;;5117853;28;20632;-80
2022/08/11 16:11:46;;;;;;;0.77;0.68;;;26.70;48.90;;;;;;5117299;27;20323;-80
2022/08/11 16:17:01;;;;;;;1.45;0.80;;;26.60;49.10;;;;;;5117566;28;20180;-80
2022/08/11 16:19:34;;;;;;;0.93;0.65;;;26.50;48.60;;;;;;5117736;28;20201;-80
2022/08/11 16:22:06;;;;;;;0.70;0.70;;;26.60;48.80;;;;;;5117335;28;20227;-80
2022/08/11 16:24:34;;;;;;;1.08;1.08;;;26.50;49.10;;;;;;5117525;28;20285;-80
2022/08/11 16:27:05;;;;;;;1.00;0.90;;;26.50;48.80;;;;;;5117267;28;20537;-80
2022/08/11 16:29:35;;;;;;;1.77;1.17;;;26.50;48.80;;;;;;5116950;28;20656;-80
2022/08/11 16:32:19;;;;;;;0.80;0.80;;;26.50;48.90;;;;;;5117747;28;20225;-80
2022/08/11 16:40:22;;;;;;;0.70;0.70;;;26.50;49.00;;;;;;5117187;28;20260;-79
2022/08/11 16:48:27;;;;;;;0.70;0.70;;;26.50;48.30;;;;;;5117224;28;20189;-79
2022/08/11 16:50:54;;;;;;;0.50;0.50;;;26.40;49.00;;;;;;5116656;28;20252;-80
2022/08/11 16:53:21;;;;;;;0.95;0.90;;;26.40;49.10;;;;;;5117256;28;20196;-80
2022/08/11 16:55:51;;;;;;;0.80;0.70;;;26.30;48.90;;;;;;5117225;28;20224;-80
2022/08/11 17:01:07;;;;;;;1.05;1.05;;;26.20;49.20;;;;;;5116917;28;20243;-80
2022/08/11 17:14:48;;;;;;;1.00;1.00;;;26.20;49.80;;;;;;5116308;28;20184;-81
2022/08/11 17:17:18;;;;;;;0.70;0.70;;;26.20;49.60;;;;;;5116294;28;20671;-81
2022/08/11 17:19:50;;;;;;;0.90;0.90;;;26.20;49.80;;;;;;5116739;28;20231;-80
2022/08/11 17:25:04;;;;;;;0.80;0.80;;;26.00;50.00;;;;;;5116107;28;20257;-81
2022/08/11 17:27:32;;;;;;;0.80;0.80;;;26.00;49.80;;;;;;5116338;28;20204;-81
2022/08/11 17:30:03;;;;;;;0.60;0.55;;;26.00;50.20;;;;;;5116201;28;20203;-79
2022/08/11 17:35:29;;;;;;;1.00;0.85;;;26.00;49.40;;;;;;5115980;28;20192;-78
2022/08/11 17:37:59;;;;;;;0.60;0.60;;;25.90;49.80;;;;;;5115831;28;20246;-79
2022/08/11 17:40:28;;;;;;;0.70;0.70;;;25.80;49.80;;;;;;5115725;28;20239;-78
2022/08/11 17:48:32;;;;;;;1.27;0.75;;;25.80;50.50;;;;;;5116001;28;20185;-78
2022/08/11 17:51:01;;;;;;;0.88;0.80;;;25.80;50.60;;;;;;5115472;28;20220;-78
2022/08/11 18:04:49;;;;;;;0.80;0.80;;;25.30;51.60;;;;;;5114976;28;20209;-80
